Pagrindinis puslapis
METAR-TAF:

METAR-TAF

Oro uostai :

Hutchinson County Airport

Borger, Teksasas, Jungtinės Amerikos Valstijos

platuma: 35-41-42N, ilguma: 101-23-42W, Aukštis: 931 m

Dabartinis oras

Ataskaita buvo paskelbta 57 minutes, ne 09:51 UTC
Vėjas 4 kt iš Pietų/Pietvakarių
Temperatūra 19°C
Drėgmė 52%
Slėgis 1024 hPa
Matomumas: 16.1 km
Giedras dangus

METAR: KBGD 290951Z AUTO 20004KT 10SM CLR 19/09 A3025 RMK AO2 SLP201 T01940089

Laikas: 05:48 (10:48 UTC)


TAF: trūkstamas

Orai ataskaitas ir orų prognozės (METAR, TAF).

turimą stotys yra geltonos ir raudonos taškus žemėlapyje.

Perkelti pele per norėdami pamatyti stoties vardą.

Tada spustelėkite, norėdami matyti oro stebėjimo ir prognozės.

Norėdami pakeisti žemėlapį: spustelėkite ant žalios mygtukų su juodo kryžiaus žemyn,; žalią mygtuką su brūkšneliu, jei norite nutolinti; arba žalių rodyklių gretimoms žemėlapius.


METAR-TAF: